Airfield :
LOGIN :

Register | Disclaimer

   EN    FR    IT 

 










Legend :    VFR   Marginal VFR   IFR   Intensive IFR   Very Intensive IFR
Visi :
Ceiling :
>= 8 km
>= 3000ft
5 to 8 km
1000 to 3000 ft
1500m to 5 km
500 to 1000 ft
800 to 1500m
200 to 500 ft
< 800m
< 200 ft
Symbols :   Thunderstorms  Fog  Heavy snow  Heavy precipitations  Wind > 20 kt
SIGMETs :     Misc.  Thunderstorms  Icing  Turbulence  Mountain Waves  Volcanic Ashes






- Airport Elevation : 33 ft
- IATA code : PLQ


EYPA - Palanga

CURRENT METAR :
  • 272020Z 28008KT 240V320 9999 BKN012 02/01 Q0994 R19/2///95

EXPIRED METARs :
  • 271950Z 29008KT 240V350 9999 OVC013 02/01 Q0994 R19/2///95
  • 271920Z 29008KT 240V350 9999 BKN009 02/00 Q0994 R19/2///95
  • 271850Z 28009G19KT 240V350 9999 SCT009 BKN029 02/01 Q0994 R19/2///95
  • 271820Z 28008G20KT 210V340 9999 -SHRA BKN012CB 02/01 Q0994 R19/2///95
  • 271750Z 27011KT 240V320 9999 -SHRA BKN012CB 02/00 Q0993 R19/2///95

TAF TAF EYPA
Valid from the 27 at 18:00 until the 28 at 18:00 UTC


271704Z 2718/2818 30012G22KT 9000 BKN010 OVC020
TEMPO 2718/2803 3000 SHRASN BKN005 BKN015CB
TEMPO 2803/2810 1500 SHRASN BKN005 BKN015CB
BECMG 2812/2813 VRB02KT SCT025



MET'MAP, your aeronautical weather chart ! - Copyright ORBIFLY December 2007 - Disclaimer

ORBIFLY MET'MAP TEAM :

Programming & Development : Alexandra Zaïnal
Concept & original design : Baudouin d'Aumeries
Assistance for programming : Marc-Olivier Méhu
Technical & hardware support : Manuel Goepfert

Contact : metmap@orbifly.com




SOURCES & CREDITS :

   NOAA